Time;durP1;ratioP1;P1;durP2;ratioP2;P2;SDS_P1;SDS_P2;PMS_P1;PMS_P2;Temp;Humidity;BMP_temperature;BMP_pressure;BME280_temperature;BME280_humidity;BME280_pressure;Samples;Min_cycle;Max_cycle;Signal;HPM_P1;HPM_P2
2022/08/20 00:01:28;;;;;;;7.30;5.78;;;20.90;99.90;;;;;;5053971;28;20178;-41
2022/08/20 00:03:53;;;;;;;7.13;5.63;;;20.70;99.90;;;;;;5053633;28;20163;-41
2022/08/20 00:06:22;;;;;;;6.00;5.10;;;20.80;99.90;;;;;;5053872;28;20171;-43
2022/08/20 00:08:48;;;;;;;7.22;5.50;;;20.70;99.90;;;;;;5053829;28;20228;-41
2022/08/20 00:11:20;;;;;;;6.80;5.85;;;20.60;99.90;;;;;;5053750;28;20197;-41
2022/08/20 00:13:52;;;;;;;5.78;5.10;;;20.60;99.90;;;;;;5053414;28;20324;-41
2022/08/20 00:16:21;;;;;;;9.40;5.45;;;20.60;99.90;;;;;;5053903;28;20173;-41
2022/08/20 00:18:47;;;;;;;7.32;5.95;;;20.50;99.90;;;;;;5053518;28;20169;-41
2022/08/20 00:21:16;;;;;;;6.50;5.43;;;20.60;99.90;;;;;;5053569;28;20254;-41
2022/08/20 00:23:45;;;;;;;8.15;5.30;;;20.60;99.90;;;;;;5053579;28;20265;-41
2022/08/20 00:26:11;;;;;;;6.68;5.80;;;20.60;99.90;;;;;;5053493;28;20245;-42
2022/08/20 00:28:38;;;;;;;8.73;5.95;;;20.50;99.90;;;;;;5053726;28;20175;-42
2022/08/20 00:31:06;;;;;;;9.10;5.88;;;20.60;99.90;;;;;;5052685;28;20202;-44
2022/08/20 00:33:33;;;;;;;7.90;6.20;;;20.50;99.90;;;;;;5053291;28;20670;-41
2022/08/20 00:36:05;;;;;;;7.05;5.28;;;20.60;99.90;;;;;;5053515;28;20630;-42
2022/08/20 00:38:32;;;;;;;7.35;5.55;;;20.60;99.90;;;;;;5053487;28;20178;-42
2022/08/20 00:40:59;;;;;;;7.05;5.63;;;20.50;99.90;;;;;;5053581;28;20171;-43
2022/08/20 00:43:38;;;;;;;7.03;5.40;;;20.50;99.90;;;;;;5053115;28;20178;-41
2022/08/20 00:46:10;;;;;;;6.10;5.47;;;20.50;99.90;;;;;;5053061;28;20202;-41
2022/08/20 00:48:37;;;;;;;5.28;4.78;;;20.40;99.90;;;;;;5053353;28;20163;-41
2022/08/20 00:51:14;;;;;;;8.75;6.45;;;20.40;99.90;;;;;;5052859;28;20179;-41
2022/08/20 00:53:40;;;;;;;7.78;5.88;;;20.30;99.90;;;;;;5052816;28;20251;-41
2022/08/20 00:56:08;;;;;;;6.78;5.10;;;20.40;99.90;;;;;;5052337;28;20167;-42
2022/08/20 00:58:36;;;;;;;7.45;5.32;;;20.50;99.90;;;;;;5052484;28;20634;-42
2022/08/20 01:01:04;;;;;;;5.93;4.75;;;20.40;99.90;;;;;;5052831;28;20163;-43
2022/08/20 01:03:30;;;;;;;9.57;5.40;;;20.30;99.90;;;;;;5053136;28;20167;-41
2022/08/20 01:05:56;;;;;;;7.78;4.68;;;20.30;99.90;;;;;;5052997;28;20567;-41
2022/08/20 01:08:25;;;;;;;5.53;4.30;;;20.30;99.90;;;;;;5051405;28;20522;-42
2022/08/20 01:10:59;;;;;;;7.53;4.97;;;20.30;99.90;;;;;;5052856;28;20174;-43
2022/08/20 01:13:26;;;;;;;5.57;5.07;;;20.30;99.90;;;;;;5052348;28;20364;-50
2022/08/20 01:15:54;;;;;;;6.55;5.03;;;20.20;99.90;;;;;;5052596;28;20155;-48
2022/08/20 01:18:24;;;;;;;6.10;5.07;;;20.10;99.90;;;;;;5052413;28;20177;-46
2022/08/20 01:20:58;;;;;;;6.68;4.82;;;20.10;99.90;;;;;;5052638;28;20552;-46
2022/08/20 01:23:39;;;;;;;9.75;5.22;;;20.20;99.90;;;;;;5052362;28;20190;-48
2022/08/20 01:26:13;;;;;;;7.45;5.97;;;20.20;99.90;;;;;;5052316;28;20162;-45
2022/08/20 01:28:57;;;;;;;7.78;6.00;;;20.20;99.90;;;;;;5052467;28;20544;-50
2022/08/20 01:31:30;;;;;;;8.18;6.35;;;20.10;99.90;;;;;;5052254;28;20626;-42
2022/08/20 01:33:57;;;;;;;7.57;5.90;;;20.10;99.90;;;;;;5052413;28;20674;-41
2022/08/20 01:36:29;;;;;;;7.47;6.13;;;20.10;99.90;;;;;;5052051;28;20253;-46
2022/08/20 01:38:55;;;;;;;9.85;6.72;;;20.10;99.90;;;;;;5052331;28;20170;-48
2022/08/20 01:41:20;;;;;;;8.60;6.60;;;20.10;99.90;;;;;;5052083;28;20163;-43
2022/08/20 01:43:55;;;;;;;9.60;6.88;;;20.20;99.90;;;;;;5052072;28;20163;-43
2022/08/20 01:46:23;;;;;;;9.55;6.03;;;20.10;99.90;;;;;;5052325;28;20197;-42
2022/08/20 01:48:48;;;;;;;7.90;7.10;;;20.20;99.90;;;;;;5051997;28;20171;-42
2022/08/20 01:51:18;;;;;;;7.75;6.72;;;20.10;99.90;;;;;;5051927;28;20172;-42
2022/08/20 01:53:47;;;;;;;7.70;6.88;;;20.10;99.90;;;;;;5051998;28;20240;-41
2022/08/20 01:56:16;;;;;;;9.68;7.05;;;20.10;99.90;;;;;;5051859;28;20163;-41
2022/08/20 01:58:49;;;;;;;7.90;7.10;;;20.10;99.90;;;;;;5052061;28;20262;-41
2022/08/20 02:01:34;;;;;;;10.68;7.30;;;20.20;99.90;;;;;;5051884;28;20185;-41
2022/08/20 02:04:03;;;;;;;9.98;7.80;;;20.10;99.90;;;;;;5051803;28;20175;-42
2022/08/20 02:06:31;;;;;;;9.15;7.22;;;20.00;99.90;;;;;;5052118;28;20194;-41
2022/08/20 02:08:58;;;;;;;9.30;7.75;;;20.10;99.90;;;;;;5051873;28;20170;-43
2022/08/20 02:11:25;;;;;;;12.45;8.15;;;20.10;99.90;;;;;;5051841;28;20171;-44
2022/08/20 02:13:52;;;;;;;8.63;7.40;;;20.10;99.90;;;;;;5051468;28;20229;-42
2022/08/20 02:16:23;;;;;;;8.85;7.72;;;20.10;99.90;;;;;;5051684;28;20350;-41
2022/08/20 02:18:54;;;;;;;8.95;7.95;;;20.10;99.90;;;;;;5051907;28;20205;-43
2022/08/20 02:21:22;;;;;;;10.95;8.07;;;20.10;99.90;;;;;;5051447;28;20645;-43
2022/08/20 02:23:48;;;;;;;8.52;7.63;;;20.00;99.90;;;;;;5051548;28;20170;-41
2022/08/20 02:26:17;;;;;;;10.52;7.57;;;20.00;99.90;;;;;;5051607;28;20171;-41
2022/08/20 02:28:48;;;;;;;11.38;8.63;;;20.10;99.90;;;;;;5051599;28;20560;-41
2022/08/20 02:31:15;;;;;;;12.45;7.75;;;20.10;99.90;;;;;;5051701;28;20171;-43
2022/08/20 02:33:41;;;;;;;8.75;7.85;;;20.10;99.90;;;;;;5051563;28;20198;-43
2022/08/20 02:36:07;;;;;;;9.57;8.55;;;20.00;99.90;;;;;;5051435;28;20173;-41
2022/08/20 02:38:33;;;;;;;10.20;8.70;;;20.00;99.90;;;;;;5051365;28;20163;-42
2022/08/20 02:41:00;;;;;;;10.07;8.15;;;20.00;99.90;;;;;;5052009;28;20593;-43
2022/08/20 02:43:26;;;;;;;9.82;8.82;;;20.00;99.90;;;;;;5051688;28;20179;-42
2022/08/20 02:45:51;;;;;;;10.57;8.63;;;20.00;99.90;;;;;;5051358;28;20175;-45
2022/08/20 02:48:22;;;;;;;11.55;8.75;;;20.00;99.90;;;;;;5051408;28;20714;-43
2022/08/20 02:50:51;;;;;;;8.90;7.88;;;20.00;99.90;;;;;;5051634;28;20174;-41
2022/08/20 02:53:17;;;;;;;11.88;9.02;;;20.00;99.90;;;;;;5051500;28;20264;-41
2022/08/20 02:55:43;;;;;;;10.25;8.05;;;20.00;99.90;;;;;;5051491;28;20170;-41
2022/08/20 02:58:09;;;;;;;11.75;8.32;;;20.10;99.90;;;;;;5051186;28;20256;-42
2022/08/20 03:00:34;;;;;;;11.68;9.27;;;20.00;99.90;;;;;;5051242;28;20163;-42
2022/08/20 03:03:00;;;;;;;10.93;8.45;;;20.10;99.90;;;;;;5051443;28;20174;-43
2022/08/20 03:05:26;;;;;;;11.93;8.98;;;20.20;99.90;;;;;;5051572;28;20265;-42
2022/08/20 03:07:52;;;;;;;10.50;9.40;;;20.10;99.90;;;;;;5051400;28;20205;-43
2022/08/20 03:10:23;;;;;;;10.77;8.35;;;20.10;99.90;;;;;;5051140;28;20531;-42
2022/08/20 03:12:49;;;;;;;9.38;7.65;;;20.10;99.90;;;;;;5050868;28;20257;-42
2022/08/20 03:15:14;;;;;;;10.63;8.43;;;20.20;99.90;;;;;;5051116;28;20195;-42
2022/08/20 03:17:40;;;;;;;11.25;8.38;;;20.20;99.90;;;;;;5051017;28;20178;-43
2022/08/20 03:20:07;;;;;;;11.85;8.35;;;20.10;99.90;;;;;;5052123;28;20175;-43
2022/08/20 03:22:34;;;;;;;10.55;8.05;;;20.20;99.90;;;;;;5054616;28;20194;-42
2022/08/20 03:24:59;;;;;;;10.80;8.38;;;20.10;99.90;;;;;;5054995;28;20167;-41
2022/08/20 03:27:25;;;;;;;8.65;7.75;;;20.10;99.90;;;;;;5054800;28;20170;-43
2022/08/20 03:29:50;;;;;;;9.07;7.45;;;20.10;99.90;;;;;;5054535;28;20189;-41
2022/08/20 03:32:16;;;;;;;10.32;7.65;;;20.20;99.90;;;;;;5054436;28;20614;-41
2022/08/20 03:34:42;;;;;;;7.90;7.10;;;20.20;99.90;;;;;;5054393;28;20182;-41
2022/08/20 03:37:08;;;;;;;7.97;7.18;;;20.20;99.90;;;;;;5054407;28;20170;-44
2022/08/20 03:39:34;;;;;;;8.95;6.72;;;20.20;99.90;;;;;;5054529;28;20174;-42
2022/08/20 03:41:59;;;;;;;9.70;6.28;;;20.20;99.90;;;;;;5054189;28;20169;-42
2022/08/20 03:44:25;;;;;;;9.93;5.95;;;20.20;99.90;;;;;;5054588;28;20174;-41
2022/08/20 03:46:51;;;;;;;8.85;6.25;;;20.10;99.90;;;;;;5054184;28;20626;-44
2022/08/20 03:49:16;;;;;;;7.00;5.90;;;20.10;99.90;;;;;;5054222;28;20178;-44
2022/08/20 03:51:42;;;;;;;8.65;6.18;;;20.10;99.90;;;;;;5054363;28;20166;-42
2022/08/20 03:54:07;;;;;;;6.57;5.22;;;20.10;99.90;;;;;;5054107;28;20206;-42
2022/08/20 03:56:33;;;;;;;6.00;5.40;;;19.90;99.90;;;;;;5054196;28;20194;-41
2022/08/20 03:58:58;;;;;;;8.52;5.80;;;20.10;99.90;;;;;;5054373;28;20260;-41
2022/08/20 04:01:24;;;;;;;6.53;5.93;;;19.60;99.90;;;;;;5054487;28;20537;-41
2022/08/20 04:03:50;;;;;;;9.73;5.93;;;20.00;99.90;;;;;;5054012;28;20195;-41
2022/08/20 04:06:17;;;;;;;9.93;6.68;;;19.90;99.90;;;;;;5053885;28;20208;-41
2022/08/20 04:08:42;;;;;;;9.13;7.03;;;19.90;99.90;;;;;;5053816;28;20174;-41
2022/08/20 04:11:08;;;;;;;10.35;8.15;;;19.80;99.90;;;;;;5053796;28;20170;-41
2022/08/20 04:13:33;;;;;;;9.45;8.07;;;19.90;99.90;;;;;;5053482;28;20222;-41
2022/08/20 04:16:06;;;;;;;13.10;8.82;;;19.90;99.90;;;;;;5053717;28;20215;-41
2022/08/20 04:18:33;;;;;;;15.07;11.10;;;19.70;99.90;;;;;;5053827;28;20510;-40
2022/08/20 04:20:58;;;;;;;11.45;10.05;;;19.70;99.90;;;;;;5053878;28;20197;-41
2022/08/20 04:23:24;;;;;;;14.50;11.98;;;19.70;99.90;;;;;;5053907;28;20178;-41
2022/08/20 04:25:49;;;;;;;18.38;12.95;;;19.70;99.90;;;;;;5053512;28;20163;-41
2022/08/20 04:28:25;;;;;;;21.55;14.27;;;19.60;99.90;;;;;;5053486;28;20668;-41
2022/08/20 04:30:52;;;;;;;18.20;14.90;;;19.70;99.90;;;;;;5053657;28;20257;-41
2022/08/20 04:33:19;;;;;;;19.40;14.65;;;19.70;99.90;;;;;;5053584;28;20638;-41
2022/08/20 04:35:45;;;;;;;18.88;14.55;;;19.70;99.90;;;;;;5053525;28;20178;-40
2022/08/20 04:38:15;;;;;;;19.42;13.98;;;19.70;99.90;;;;;;5053288;28;20170;-41
2022/08/20 04:40:52;;;;;;;16.90;13.75;;;19.60;99.90;;;;;;5053299;28;20627;-48
2022/08/20 04:43:19;;;;;;;18.02;15.07;;;19.60;99.90;;;;;;5053280;28;20166;-46
2022/08/20 04:45:46;;;;;;;16.83;12.82;;;19.70;99.90;;;;;;5053549;28;20240;-44
2022/08/20 04:48:13;;;;;;;20.40;16.35;;;19.70;99.90;;;;;;5053075;28;20202;-45
2022/08/20 04:50:41;;;;;;;18.88;15.23;;;19.70;99.90;;;;;;5053046;28;20225;-42
2022/08/20 04:53:09;;;;;;;19.92;14.40;;;19.70;99.90;;;;;;5052811;28;20263;-41
2022/08/20 04:55:38;;;;;;;20.38;15.02;;;19.60;99.90;;;;;;5052881;28;20704;-42
2022/08/20 04:58:13;;;;;;;22.95;15.88;;;19.70;99.90;;;;;;5053191;28;20180;-42
2022/08/20 05:00:39;;;;;;;19.17;15.00;;;19.70;99.90;;;;;;5053088;28;20181;-42
2022/08/20 05:03:08;;;;;;;17.17;14.85;;;19.60;99.90;;;;;;5052979;28;20220;-43
2022/08/20 05:05:34;;;;;;;18.52;14.35;;;19.60;99.90;;;;;;5052926;28;20178;-40
2022/08/20 05:08:00;;;;;;;19.08;15.63;;;19.60;99.90;;;;;;5052865;28;20170;-41
2022/08/20 05:10:27;;;;;;;17.60;15.18;;;19.60;99.90;;;;;;5053216;28;20315;-41
2022/08/20 05:12:53;;;;;;;20.98;15.80;;;19.50;99.90;;;;;;5052403;28;20233;-50
2022/08/20 05:15:19;;;;;;;22.83;17.60;;;19.70;99.90;;;;;;5052510;28;20179;-48
2022/08/20 05:17:45;;;;;;;23.20;17.30;;;19.60;99.90;;;;;;5052460;28;20630;-42
2022/08/20 05:20:16;;;;;;;24.02;17.38;;;19.50;99.90;;;;;;5052488;28;20166;-43
2022/08/20 05:22:42;;;;;;;22.73;17.17;;;19.50;99.90;;;;;;5052652;28;20163;-45
2022/08/20 05:25:08;;;;;;;27.25;19.38;;;19.40;99.90;;;;;;5052373;28;20178;-42
2022/08/20 05:27:34;;;;;;;25.98;17.10;;;19.50;99.90;;;;;;5052322;28;20171;-44
2022/08/20 05:30:05;;;;;;;22.55;18.83;;;19.60;99.90;;;;;;5052485;28;20580;-48
2022/08/20 05:32:32;;;;;;;27.85;17.63;;;19.60;99.90;;;;;;5052079;28;20675;-47
2022/08/20 05:34:59;;;;;;;24.55;17.67;;;19.60;99.90;;;;;;5052824;28;20182;-48
2022/08/20 05:37:25;;;;;;;25.02;18.85;;;19.70;99.90;;;;;;5052865;28;20181;-46
2022/08/20 05:39:50;;;;;;;23.85;18.77;;;19.70;99.90;;;;;;5052165;28;20261;-48
2022/08/20 05:42:16;;;;;;;24.90;17.65;;;19.70;99.90;;;;;;5051891;28;20170;-44
2022/08/20 05:44:42;;;;;;;21.58;17.40;;;19.80;99.90;;;;;;5052024;28;20167;-42
2022/08/20 05:47:09;;;;;;;19.73;15.68;;;19.70;99.90;;;;;;5052052;28;20246;-42
2022/08/20 05:49:36;;;;;;;18.08;15.25;;;19.80;99.90;;;;;;5052034;28;20163;-46
2022/08/20 05:52:02;;;;;;;15.80;14.07;;;19.80;99.90;;;;;;5052004;28;20258;-45
2022/08/20 05:54:27;;;;;;;17.67;12.90;;;19.60;99.90;;;;;;5052464;28;20206;-45
2022/08/20 05:56:54;;;;;;;18.85;14.63;;;19.50;99.90;;;;;;5051911;28;20505;-42
2022/08/20 05:59:21;;;;;;;18.20;13.07;;;19.60;99.90;;;;;;5051798;28;20257;-42
2022/08/20 06:01:47;;;;;;;16.25;12.98;;;19.40;99.90;;;;;;5052024;28;20219;-43
2022/08/20 06:04:26;;;;;;;17.73;14.45;;;19.40;99.90;;;;;;5051828;28;20630;-42
2022/08/20 06:07:11;;;;;;;16.38;13.25;;;19.40;99.90;;;;;;5051977;28;20562;-43
2022/08/20 06:09:36;;;;;;;15.52;12.40;;;19.40;99.90;;;;;;5051721;28;20171;-46
2022/08/20 06:12:04;;;;;;;17.90;12.77;;;19.30;99.90;;;;;;5051611;28;20221;-45
2022/08/20 06:14:31;;;;;;;19.42;14.13;;;19.30;99.90;;;;;;5051924;28;20182;-45
2022/08/20 06:17:11;;;;;;;18.80;13.55;;;19.30;99.90;;;;;;5052286;28;20177;-45
2022/08/20 06:19:37;;;;;;;17.13;12.82;;;19.30;99.90;;;;;;5051976;28;20198;-46
2022/08/20 06:22:04;;;;;;;15.23;13.48;;;19.10;99.90;;;;;;5051652;28;20158;-47
2022/08/20 06:24:30;;;;;;;14.82;12.80;;;19.20;99.90;;;;;;5051621;28;20248;-45
2022/08/20 06:26:57;;;;;;;15.00;12.00;;;19.20;99.90;;;;;;5051989;28;20170;-41
2022/08/20 06:29:23;;;;;;;19.02;12.77;;;19.20;99.90;;;;;;5051586;28;20173;-45
2022/08/20 06:31:49;;;;;;;14.43;11.73;;;19.10;99.90;;;;;;5051555;28;20257;-44
2022/08/20 06:34:15;;;;;;;15.75;11.63;;;19.10;99.90;;;;;;5051501;28;20228;-42
2022/08/20 06:36:41;;;;;;;14.50;10.88;;;19.10;99.90;;;;;;5051534;28;20174;-41
2022/08/20 06:39:07;;;;;;;17.00;11.27;;;19.10;99.90;;;;;;5051513;28;20166;-42
2022/08/20 06:41:33;;;;;;;14.55;11.95;;;19.00;99.90;;;;;;5051698;28;20254;-43
2022/08/20 06:43:59;;;;;;;16.52;11.73;;;19.00;99.90;;;;;;5051369;28;20177;-48
2022/08/20 06:46:24;;;;;;;15.20;11.20;;;19.00;99.90;;;;;;5051859;28;20171;-42
2022/08/20 06:48:50;;;;;;;16.63;12.77;;;18.90;99.90;;;;;;5051363;28;20515;-43
2022/08/20 06:51:16;;;;;;;14.95;12.25;;;19.00;99.90;;;;;;5051364;28;20167;-42
2022/08/20 06:53:41;;;;;;;14.05;11.75;;;19.10;99.90;;;;;;5051235;28;20271;-42
2022/08/20 06:56:07;;;;;;;16.80;12.45;;;19.20;99.90;;;;;;5054104;28;20237;-41
2022/08/20 06:58:33;;;;;;;16.02;11.80;;;19.10;99.90;;;;;;5055410;28;20661;-41
2022/08/20 07:00:59;;;;;;;16.80;10.93;;;19.20;99.90;;;;;;5055136;28;20534;-42
2022/08/20 07:03:25;;;;;;;16.75;11.85;;;19.20;99.90;;;;;;5055627;28;20181;-41
2022/08/20 07:05:51;;;;;;;14.85;11.60;;;19.30;99.90;;;;;;5055070;28;20636;-44
2022/08/20 07:08:21;;;;;;;15.05;11.75;;;19.40;99.90;;;;;;5053730;28;20170;-43
2022/08/20 07:10:47;;;;;;;14.68;11.27;;;19.40;99.90;;;;;;5055220;28;20170;-45
2022/08/20 07:13:15;;;;;;;13.68;10.98;;;19.50;99.90;;;;;;5054658;28;20231;-42
2022/08/20 07:15:42;;;;;;;12.65;11.40;;;19.60;99.90;;;;;;5055130;28;20174;-41
2022/08/20 07:18:10;;;;;;;14.23;10.50;;;19.80;99.90;;;;;;5054726;28;20174;-42
2022/08/20 07:20:39;;;;;;;16.00;10.45;;;20.00;99.90;;;;;;5053484;28;20591;-41
2022/08/20 07:23:04;;;;;;;14.25;10.50;;;20.00;99.90;;;;;;5054618;28;20696;-41
2022/08/20 07:25:32;;;;;;;16.35;10.73;;;20.10;99.90;;;;;;5054943;28;20171;-42
2022/08/20 07:28:03;;;;;;;17.23;11.05;;;20.00;99.90;;;;;;5055186;28;20585;-42
2022/08/20 07:33:14;;;;;;;13.60;10.18;;;20.20;99.90;;;;;;5054617;28;20259;-43
2022/08/20 07:35:42;;;;;;;15.88;9.85;;;20.30;99.90;;;;;;5053349;28;20579;-42
2022/08/20 07:38:23;;;;;;;15.88;11.02;;;20.30;99.90;;;;;;5054718;28;20167;-43
2022/08/20 07:40:55;;;;;;;13.63;10.07;;;20.10;99.90;;;;;;5054327;28;20258;-45
2022/08/20 07:43:24;;;;;;;12.30;9.88;;;19.90;99.90;;;;;;5054586;28;20175;-43
2022/08/20 07:45:54;;;;;;;16.17;10.40;;;20.00;99.90;;;;;;5054485;28;20525;-45
2022/08/20 07:48:20;;;;;;;14.25;9.50;;;20.00;99.90;;;;;;5054464;28;20174;-46
2022/08/20 07:50:48;;;;;;;12.77;9.13;;;20.00;99.90;;;;;;5054680;28;20178;-47
2022/08/20 07:53:16;;;;;;;11.63;9.98;;;20.10;99.90;;;;;;5053966;28;20735;-47
2022/08/20 07:55:43;;;;;;;14.23;9.30;;;20.30;99.90;;;;;;5054040;28;20622;-47
2022/08/20 07:58:11;;;;;;;18.30;10.85;;;20.30;99.90;;;;;;5054335;28;20189;-49
2022/08/20 08:00:38;;;;;;;15.88;11.02;;;20.30;99.90;;;;;;5054300;28;20167;-48
2022/08/20 08:03:05;;;;;;;16.73;11.18;;;20.40;99.90;;;;;;5054041;28;20163;-51
2022/08/20 08:05:37;;;;;;;20.05;11.05;;;20.20;99.90;;;;;;5053636;28;20217;-42
2022/08/20 08:08:08;;;;;;;18.40;10.93;;;20.10;99.90;;;;;;5053982;28;20163;-42
2022/08/20 08:10:35;;;;;;;16.92;10.35;;;20.10;99.90;;;;;;5053894;28;20589;-41
2022/08/20 08:13:04;;;;;;;15.15;9.25;;;20.40;99.90;;;;;;5053669;28;20572;-42
2022/08/20 08:15:32;;;;;;;15.82;10.90;;;20.40;99.90;;;;;;5053770;28;20178;-42
2022/08/20 08:18:05;;;;;;;17.52;10.95;;;20.60;99.90;;;;;;5053973;28;20209;-41
2022/08/20 08:20:30;;;;;;;18.30;11.05;;;20.50;99.90;;;;;;5053918;28;20236;-41
2022/08/20 08:22:57;;;;;;;15.77;10.68;;;20.50;99.90;;;;;;5054002;28;20171;-41
2022/08/20 08:25:22;;;;;;;16.70;11.43;;;20.50;99.90;;;;;;5053447;28;20166;-41
2022/08/20 08:27:48;;;;;;;18.20;9.80;;;20.80;99.90;;;;;;5053506;28;20265;-41
2022/08/20 08:30:15;;;;;;;18.55;10.07;;;20.80;99.90;;;;;;5053719;28;20174;-41
2022/08/20 08:33:26;;;;;;;14.18;9.80;;;20.70;99.90;;;;;;5053609;28;20612;-40
2022/08/20 08:35:27;;;;;;;16.25;9.00;;;20.70;99.90;;;;;;5053604;28;20198;-42
2022/08/20 08:37:52;;;;;;;14.05;10.27;;;20.80;99.90;;;;;;5053703;28;20170;-43
2022/08/20 08:40:20;;;;;;;15.68;9.35;;;20.90;99.90;;;;;;5053264;28;20170;-41
2022/08/20 08:42:57;;;;;;;11.68;8.13;;;20.80;99.90;;;;;;5053443;28;20232;-42
2022/08/20 08:45:37;;;;;;;14.98;9.13;;;20.80;99.90;;;;;;5053657;28;20210;-47
2022/08/20 08:48:03;;;;;;;14.15;10.02;;;20.70;99.90;;;;;;5053259;28;20162;-44
2022/08/20 08:50:32;;;;;;;15.55;9.65;;;20.80;99.90;;;;;;5053188;28;20167;-43
2022/08/20 08:53:01;;;;;;;13.52;10.52;;;20.80;99.90;;;;;;5053316;28;20213;-57
2022/08/20 08:55:28;;;;;;;17.02;10.85;;;20.70;99.90;;;;;;5053707;28;20272;-53
2022/08/20 08:57:57;;;;;;;13.57;9.77;;;20.70;99.90;;;;;;5053509;28;20527;-50
2022/08/20 09:00:23;;;;;;;14.02;9.48;;;20.80;99.90;;;;;;5053465;28;20202;-51
2022/08/20 09:03:14;;;;;;;16.95;10.07;;;20.90;99.90;;;;;;5052792;28;20240;-48
2022/08/20 09:05:51;;;;;;;18.33;10.88;;;21.00;99.90;;;;;;5052755;28;20174;-49
2022/08/20 09:08:23;;;;;;;17.45;11.13;;;20.80;99.90;;;;;;5053083;28;21148;-49
2022/08/20 09:10:49;;;;;;;20.02;11.38;;;20.80;99.90;;;;;;5052595;28;20167;-47
2022/08/20 09:13:15;;;;;;;18.20;10.35;;;20.90;99.90;;;;;;5052458;28;20559;-48
2022/08/20 09:15:41;;;;;;;15.65;10.35;;;21.10;99.90;;;;;;5052559;28;20217;-48
2022/08/20 09:18:07;;;;;;;15.07;9.15;;;20.80;99.90;;;;;;5051896;28;20174;-47
2022/08/20 09:20:32;;;;;;;13.68;9.57;;;20.70;99.90;;;;;;5052531;28;20175;-48
2022/08/20 09:22:58;;;;;;;20.20;10.50;;;20.70;99.90;;;;;;5052506;28;20167;-47
2022/08/20 09:25:24;;;;;;;16.52;10.18;;;20.80;99.90;;;;;;5052735;28;20198;-46
2022/08/20 09:27:49;;;;;;;15.05;10.23;;;21.10;99.90;;;;;;5051089;28;20224;-47
2022/08/20 09:30:15;;;;;;;16.42;10.48;;;21.40;99.90;;;;;;5052255;28;20166;-49
2022/08/20 09:32:42;;;;;;;19.05;11.93;;;21.30;99.90;;;;;;5052168;28;20240;-47
2022/08/20 09:35:08;;;;;;;18.23;11.10;;;21.40;99.90;;;;;;5052234;28;20212;-49
2022/08/20 09:37:34;;;;;;;15.10;10.35;;;21.50;99.90;;;;;;5052095;28;20676;-48
2022/08/20 09:40:00;;;;;;;15.60;9.90;;;21.30;99.90;;;;;;5052056;28;20254;-49
2022/08/20 09:42:29;;;;;;;18.27;8.57;;;21.50;99.90;;;;;;5052400;28;20284;-49
2022/08/20 09:44:56;;;;;;;18.33;10.05;;;21.50;99.90;;;;;;5052643;28;20166;-49
2022/08/20 09:47:21;;;;;;;17.17;10.07;;;21.60;99.90;;;;;;5052024;28;20162;-49
2022/08/20 09:49:47;;;;;;;17.90;9.70;;;21.80;99.90;;;;;;5051901;28;20178;-48
2022/08/20 09:52:41;;;;;;;14.95;9.98;;;21.90;99.90;;;;;;5051803;28;20245;-50
2022/08/20 09:55:25;;;;;;;13.65;9.07;;;21.90;99.90;;;;;;5050873;28;20219;-49
2022/08/20 09:57:51;;;;;;;15.80;10.15;;;21.80;99.90;;;;;;5051927;28;20166;-49
2022/08/20 10:00:18;;;;;;;16.52;9.50;;;21.80;99.90;;;;;;5051685;28;20166;-49
2022/08/20 10:02:45;;;;;;;15.88;10.10;;;21.90;99.90;;;;;;5051815;28;20634;-49
2022/08/20 10:05:10;;;;;;;16.88;9.50;;;21.90;99.90;;;;;;5051772;28;20171;-48
2022/08/20 10:07:38;;;;;;;16.15;9.88;;;22.00;99.90;;;;;;5051697;28;20174;-48
2022/08/20 10:10:06;;;;;;;19.50;10.05;;;22.00;99.90;;;;;;5052003;28;20178;-49
2022/08/20 10:12:32;;;;;;;16.83;9.20;;;22.00;99.90;;;;;;5051483;28;20204;-50
2022/08/20 10:14:57;;;;;;;16.83;8.40;;;22.00;99.90;;;;;;5051724;28;20174;-49
2022/08/20 10:17:23;;;;;;;16.15;8.60;;;22.00;99.90;;;;;;5052055;28;20165;-49
2022/08/20 10:19:48;;;;;;;14.23;9.02;;;22.10;99.90;;;;;;5051667;28;20634;-45
2022/08/20 10:22:14;;;;;;;16.25;8.65;;;22.00;99.90;;;;;;5051590;28;20162;-45
2022/08/20 10:24:39;;;;;;;15.27;9.70;;;21.90;99.90;;;;;;5051628;28;20171;-47
2022/08/20 10:27:05;;;;;;;14.75;8.98;;;21.90;99.90;;;;;;5051565;28;20170;-47
2022/08/20 10:29:31;;;;;;;15.15;8.45;;;22.00;99.90;;;;;;5052162;28;20618;-47
2022/08/20 10:32:10;;;;;;;17.20;9.57;;;22.00;99.90;;;;;;5054266;28;20250;-46
2022/08/20 10:34:37;;;;;;;12.98;8.55;;;22.10;99.90;;;;;;5055585;28;20201;-48
2022/08/20 10:37:03;;;;;;;13.50;8.75;;;21.90;99.90;;;;;;5055780;28;20167;-47
2022/08/20 10:39:29;;;;;;;12.82;8.43;;;22.00;99.90;;;;;;5055566;28;20177;-49
2022/08/20 10:41:54;;;;;;;16.52;9.27;;;21.90;99.90;;;;;;5055896;28;20213;-47
2022/08/20 10:44:20;;;;;;;14.40;8.57;;;22.10;99.90;;;;;;5055651;28;20174;-49
2022/08/20 10:46:45;;;;;;;13.13;8.27;;;22.30;99.90;;;;;;5055399;28;20642;-46
2022/08/20 10:49:11;;;;;;;16.67;9.50;;;22.30;99.90;;;;;;5055339;28;20193;-48
2022/08/20 10:51:36;;;;;;;14.93;8.63;;;22.40;99.90;;;;;;5055363;28;20167;-47
2022/08/20 10:54:02;;;;;;;14.88;9.77;;;22.20;99.90;;;;;;5055129;28;20210;-46
2022/08/20 10:56:28;;;;;;;19.85;10.25;;;22.30;99.90;;;;;;5055240;28;20167;-48
2022/08/20 10:58:53;;;;;;;15.40;10.90;;;22.30;99.90;;;;;;5055555;28;20167;-47
2022/08/20 11:01:19;;;;;;;18.05;10.02;;;22.40;99.90;;;;;;5055335;28;20246;-47
2022/08/20 11:03:44;;;;;;;13.43;10.25;;;22.40;99.90;;;;;;5055040;28;20243;-47
2022/08/20 11:06:10;;;;;;;17.58;11.57;;;22.50;99.90;;;;;;5053854;28;20162;-46
2022/08/20 11:08:36;;;;;;;19.08;11.48;;;22.80;99.90;;;;;;5055062;28;20189;-45
2022/08/20 11:11:02;;;;;;;14.70;10.60;;;23.00;99.90;;;;;;5054935;28;20166;-45
2022/08/20 11:13:28;;;;;;;15.38;9.95;;;23.10;99.90;;;;;;5054741;28;20568;-45
2022/08/20 11:15:53;;;;;;;19.38;11.45;;;23.00;99.90;;;;;;5055220;28;20169;-46
2022/08/20 11:18:19;;;;;;;16.58;11.00;;;22.90;99.90;;;;;;5054810;28;20162;-45
2022/08/20 11:20:44;;;;;;;14.35;11.10;;;23.00;99.90;;;;;;5054770;28;20168;-48
2022/08/20 11:23:10;;;;;;;17.48;10.43;;;23.10;99.90;;;;;;5054782;28;20699;-44
2022/08/20 11:25:36;;;;;;;16.63;10.80;;;23.20;99.90;;;;;;5054714;28;20170;-46
2022/08/20 11:28:02;;;;;;;13.43;9.35;;;23.10;99.90;;;;;;5054724;28;20285;-50
2022/08/20 11:30:33;;;;;;;16.45;11.20;;;23.10;99.90;;;;;;5054863;28;20170;-49
2022/08/20 11:32:59;;;;;;;17.23;11.85;;;22.90;99.90;;;;;;5054507;28;20190;-49
2022/08/20 11:35:27;;;;;;;14.10;10.80;;;23.20;99.90;;;;;;5054014;28;20257;-49
2022/08/20 11:37:54;;;;;;;21.15;12.00;;;23.40;99.90;;;;;;5054777;28;20166;-50
2022/08/20 11:40:20;;;;;;;16.02;11.98;;;23.60;99.90;;;;;;5053790;28;20216;-50
2022/08/20 11:42:48;;;;;;;20.30;12.57;;;23.90;99.90;;;;;;5054285;28;20199;-50
2022/08/20 11:45:14;;;;;;;12.55;10.43;;;24.30;99.90;;;;;;5054626;28;20181;-50
2022/08/20 11:47:41;;;;;;;14.98;10.20;;;24.40;99.90;;;;;;5054466;28;20177;-49
2022/08/20 11:50:15;;;;;;;17.17;10.88;;;24.50;99.90;;;;;;5054305;28;20521;-49
2022/08/20 11:52:40;;;;;;;15.55;11.68;;;24.90;99.90;;;;;;5054147;28;20650;-49
2022/08/20 11:55:09;;;;;;;14.70;11.13;;;24.80;99.90;;;;;;5054147;28;20177;-49
2022/08/20 11:57:36;;;;;;;13.52;9.82;;;24.60;99.90;;;;;;5054162;28;20165;-49
2022/08/20 12:00:06;;;;;;;16.77;9.43;;;24.80;99.90;;;;;;5054036;28;20172;-49
2022/08/20 12:02:32;;;;;;;12.27;9.27;;;24.70;99.90;;;;;;5054030;28;20525;-45
2022/08/20 12:04:58;;;;;;;13.75;9.45;;;24.90;99.90;;;;;;5053949;28;20170;-46
2022/08/20 12:07:24;;;;;;;15.02;9.30;;;25.10;99.90;;;;;;5054075;28;20521;-49
2022/08/20 12:09:51;;;;;;;13.13;8.57;;;25.30;99.90;;;;;;5053766;28;20231;-50
2022/08/20 12:12:19;;;;;;;11.27;8.15;;;25.50;99.90;;;;;;5053731;28;20214;-47
2022/08/20 12:14:44;;;;;;;14.35;8.18;;;25.80;99.90;;;;;;5054025;28;20186;-49
2022/08/20 12:17:22;;;;;;;17.25;9.13;;;26.10;99.90;;;;;;5053640;28;20166;-50
2022/08/20 12:19:49;;;;;;;15.95;7.57;;;26.00;99.90;;;;;;5053755;28;20162;-50
2022/08/20 12:22:15;;;;;;;22.85;9.45;;;25.80;99.90;;;;;;5053831;28;20166;-50
2022/08/20 12:24:42;;;;;;;10.75;7.00;;;25.60;99.90;;;;;;5053575;28;20520;-49
2022/08/20 12:27:19;;;;;;;11.80;7.38;;;25.90;99.90;;;;;;5053561;28;20248;-50
2022/08/20 12:29:46;;;;;;;16.00;9.95;;;25.90;99.90;;;;;;5053729;28;20630;-47
2022/08/20 12:32:12;;;;;;;12.55;7.70;;;25.90;99.90;;;;;;5053372;28;20268;-50
2022/08/20 12:34:41;;;;;;;14.50;8.90;;;26.00;99.90;;;;;;5053635;28;20307;-50
2022/08/20 12:37:10;;;;;;;13.02;8.98;;;25.80;99.90;;;;;;5052801;28;20163;-47
2022/08/20 12:39:40;;;;;;;10.48;6.35;;;25.60;99.90;;;;;;5053333;28;20641;-44
2022/08/20 12:42:06;;;;;;;13.30;7.53;;;26.20;99.90;;;;;;5053571;28;20173;-44